Alamo Heights, Texas
Current Conditions -  °F | °C
As of 4:51 AM on Sunday 21 Dec 2014 (Local Time) from KSAT Reporting Station
Overcast Overcast  
Wind Chill: 11°   Ceiling: 1800
Heat Index: 11°   Visibility: 9mi
Dew Point:   Wind: 3mph
Humidity: 86%   Direction: 140°SE
Pressure: 30.08"   Gusts: NA
Location:  29.4797°N, 98.4508°W
Report Text: KSAT 211051Z 14003KT 9SM FEW009 OVC018 11/09 A3008 RMK AO2 SLP177 T01110089
Loading
Personal Weather Stations






























Interactive Weather Map New forecast layout! Learn more

10-Day Weather Forecast

Advertisements
Track Severe Weather on mobile